createdAt,value
2019-01-21T00:01:49.065Z,66.20
2019-01-21T00:04:54.329Z,66.40
2019-01-21T00:07:59.602Z,66.10
2019-01-21T00:11:04.595Z,66.00
2019-01-21T00:14:09.893Z,66.00
2019-01-21T00:17:22.239Z,65.80
2019-01-21T00:20:22.928Z,65.60
2019-01-21T00:23:28.035Z,66.40
2019-01-21T00:26:33.120Z,65.60
2019-01-21T00:29:38.200Z,65.40
2019-01-21T00:32:43.126Z,65.80
2019-01-21T00:35:48.078Z,65.90
2019-01-21T00:38:53.033Z,66.00
2019-01-21T00:41:58.065Z,66.30
2019-01-21T00:45:03.073Z,66.30
2019-01-21T00:48:08.064Z,66.20
2019-01-21T00:51:13.282Z,66.20
2019-01-21T00:54:18.341Z,66.30
2019-01-21T00:57:23.271Z,66.20
2019-01-21T01:00:28.599Z,66.90
2019-01-21T01:03:33.677Z,67.30
2019-01-21T01:06:38.713Z,67.90
2019-01-21T01:09:43.848Z,67.40
2019-01-21T01:12:48.778Z,67.50
2019-01-21T01:15:53.960Z,67.70
2019-01-21T01:18:58.885Z,67.30
2019-01-21T01:22:04.279Z,67.40
2019-01-21T01:25:10.238Z,67.40
2019-01-21T01:28:15.047Z,67.10
2019-01-21T01:31:20.067Z,66.80
2019-01-21T01:34:25.070Z,66.60
2019-01-21T01:37:30.128Z,66.90
2019-01-21T01:40:35.093Z,67.10
2019-01-21T01:43:40.269Z,67.30
2019-01-21T01:46:45.083Z,66.90
2019-01-21T01:49:50.062Z,66.90
2019-01-21T01:52:55.078Z,67.10
2019-01-21T01:56:00.197Z,66.90
2019-01-21T01:59:05.207Z,67.10
2019-01-21T02:02:10.384Z,67.50
2019-01-21T02:05:15.328Z,67.70
2019-01-21T02:08:20.347Z,67.90
2019-01-21T02:11:25.201Z,68.20
2019-01-21T02:14:30.853Z,67.90
2019-01-21T02:17:35.786Z,68.00
2019-01-21T02:20:41.231Z,68.00
2019-01-21T02:23:51.357Z,67.60
2019-01-21T02:27:05.185Z,67.60
2019-01-21T02:31:02.472Z,68.00
2019-01-21T02:34:53.303Z,68.30
2019-01-21T02:38:47.977Z,68.30
2019-01-21T02:42:05.984Z,68.20
2019-01-21T02:45:48.848Z,68.70
2019-01-21T02:49:07.199Z,69.10
2019-01-21T02:53:01.199Z,69.40
2019-01-21T02:56:35.719Z,69.40
2019-01-21T03:00:11.994Z,69.30
2019-01-21T03:03:49.458Z,69.50
2019-01-21T03:07:15.549Z,69.40
2019-01-21T03:11:03.012Z,69.40
2019-01-21T03:14:36.841Z,69.80
2019-01-21T03:18:24.928Z,69.90
2019-01-21T03:22:18.472Z,69.80
2019-01-21T03:26:05.721Z,70.20
2019-01-21T03:29:39.390Z,68.30
2019-01-21T03:33:33.243Z,68.80
2019-01-21T03:37:02.357Z,68.70
2019-01-21T03:40:42.511Z,69.00
2019-01-21T03:44:27.328Z,69.20
2019-01-21T03:48:16.597Z,69.10
2019-01-21T03:51:57.135Z,69.10
2019-01-21T03:55:09.947Z,69.10
2019-01-21T03:59:06.274Z,69.00
2019-01-21T04:02:48.398Z,69.20
2019-01-21T04:06:36.260Z,69.00
2019-01-21T04:10:14.233Z,68.50
2019-01-21T04:13:35.923Z,69.30
2019-01-21T04:17:14.318Z,68.40
2019-01-21T04:20:38.120Z,68.90
2019-01-21T04:24:19.987Z,68.90
2019-01-21T04:28:05.859Z,68.80
2019-01-21T04:31:31.416Z,68.30
2019-01-21T04:35:11.966Z,68.40
2019-01-21T04:39:00.747Z,68.40
2019-01-21T04:43:06.891Z,68.40
2019-01-21T04:46:37.443Z,68.30
2019-01-21T04:50:41.914Z,68.30
2019-01-21T04:54:27.155Z,68.30
2019-01-21T04:58:08.663Z,68.80
2019-01-21T05:02:05.409Z,69.10
2019-01-21T05:05:25.710Z,69.40
2019-01-21T05:09:08.537Z,69.40
2019-01-21T05:12:51.966Z,69.30
2019-01-21T05:16:32.575Z,69.50
2019-01-21T05:20:23.563Z,69.50
2019-01-21T05:24:14.468Z,69.50
2019-01-21T05:27:57.632Z,69.70
2019-01-21T05:31:37.392Z,69.40
2019-01-21T05:35:20.988Z,69.60
2019-01-21T05:38:53.757Z,69.50
2019-01-21T05:42:31.962Z,69.70
2019-01-21T05:46:16.577Z,70.70
2019-01-21T05:50:02.073Z,69.40
2019-01-21T05:53:48.323Z,69.20
2019-01-21T05:57:42.368Z,69.10
2019-01-21T06:01:09.119Z,68.80
2019-01-21T06:04:39.876Z,68.30
2019-01-21T06:08:40.592Z,68.50
2019-01-21T06:12:15.349Z,68.40
2019-01-21T06:16:00.612Z,68.50
2019-01-21T06:19:51.093Z,67.90
2019-01-21T06:23:45.453Z,67.70
2019-01-21T06:27:26.919Z,67.80
2019-01-21T06:31:06.436Z,67.60
2019-01-21T06:34:55.363Z,67.50
2019-01-21T06:38:42.947Z,67.10
2019-01-21T06:42:31.336Z,67.30
2019-01-21T06:46:16.457Z,67.40
2019-01-21T06:50:20.520Z,67.70
2019-01-21T06:54:09.285Z,67.90
2019-01-21T06:57:48.638Z,67.90
2019-01-21T07:01:46.184Z,68.00
2019-01-21T07:05:33.681Z,68.20
2019-01-21T07:09:08.436Z,68.80
2019-01-21T07:12:44.914Z,68.00
2019-01-21T07:16:26.281Z,67.60
2019-01-21T07:20:19.382Z,67.50
2019-01-21T07:23:37.886Z,67.60
2019-01-21T07:27:06.477Z,67.90
2019-01-21T07:30:49.431Z,67.60
2019-01-21T07:34:10.483Z,67.20
2019-01-21T07:37:37.703Z,66.90
2019-01-21T07:41:19.946Z,66.50
2019-01-21T07:45:00.945Z,66.50
2019-01-21T07:48:53.187Z,66.40
2019-01-21T07:52:35.020Z,66.40
2019-01-21T07:56:21.675Z,66.40
2019-01-21T08:00:22.763Z,65.90
2019-01-21T08:04:35.477Z,65.70
2019-01-21T08:08:16.094Z,65.70
2019-01-21T08:12:11.768Z,66.30
2019-01-21T08:15:59.953Z,66.40
2019-01-21T08:19:36.229Z,66.70
2019-01-21T08:23:17.406Z,66.50
2019-01-21T08:26:55.064Z,65.80
2019-01-21T08:30:24.836Z,65.90
2019-01-21T08:34:11.103Z,66.10
2019-01-21T08:37:36.143Z,66.30
2019-01-21T08:41:16.271Z,67.10
2019-01-21T08:45:10.639Z,66.90
2019-01-21T08:49:05.261Z,66.50
2019-01-21T08:52:57.903Z,66.50
2019-01-21T08:56:37.291Z,66.50
2019-01-21T09:00:19.648Z,66.30
2019-01-21T09:03:55.076Z,66.20
2019-01-21T09:07:42.507Z,66.30
2019-01-21T09:11:10.574Z,66.30
2019-01-21T09:14:46.058Z,66.30
2019-01-21T09:18:31.510Z,66.40
2019-01-21T09:22:07.997Z,66.30
2019-01-21T09:25:35.424Z,66.40
2019-01-21T09:29:25.077Z,66.30
2019-01-21T09:32:58.873Z,68.10
2019-01-21T09:36:29.569Z,67.90
2019-01-21T09:39:51.884Z,66.30
2019-01-21T09:43:15.026Z,66.20
2019-01-21T09:46:56.289Z,66.30
2019-01-21T09:50:01.239Z,66.40
2019-01-21T09:53:07.832Z,66.40
2019-01-21T09:56:13.134Z,66.30
2019-01-21T09:59:19.063Z,65.90
2019-01-21T10:02:37.610Z,65.80
2019-01-21T10:05:44.976Z,66.00
2019-01-21T10:09:31.317Z,66.00
2019-01-21T10:13:20.450Z,66.30
2019-01-21T10:16:53.203Z,65.80
2019-01-21T10:20:36.694Z,66.20
2019-01-21T10:24:43.434Z,66.30
2019-01-21T10:28:23.287Z,66.10
2019-01-21T10:32:09.081Z,66.60
2019-01-21T10:35:57.498Z,66.20
2019-01-21T10:39:56.509Z,65.80
2019-01-21T10:43:37.249Z,65.50
2019-01-21T10:47:13.936Z,65.40
2019-01-21T10:51:02.663Z,65.60
2019-01-21T10:54:35.445Z,65.60
2019-01-21T10:58:09.001Z,65.60
2019-01-21T11:01:50.526Z,65.70
2019-01-21T11:05:25.334Z,65.60
2019-01-21T11:09:17.225Z,65.70
2019-01-21T11:12:52.659Z,65.60
2019-01-21T11:16:10.460Z,65.80
2019-01-21T11:20:11.430Z,65.80
2019-01-21T11:23:52.686Z,65.60
2019-01-21T11:27:28.643Z,65.10
2019-01-21T11:31:11.869Z,65.20
2019-01-21T11:34:52.486Z,64.80
2019-01-21T11:38:30.234Z,64.60
2019-01-21T11:41:51.510Z,63.90
2019-01-21T11:45:46.535Z,63.70
2019-01-21T11:49:53.291Z,62.80
2019-01-21T11:53:10.270Z,62.80
2019-01-21T11:57:14.069Z,61.90
2019-01-21T12:00:44.696Z,62.00
2019-01-21T12:04:21.155Z,62.00
2019-01-21T12:07:41.575Z,61.90
2019-01-21T12:11:39.099Z,61.60
2019-01-21T12:15:22.268Z,61.10
2019-01-21T12:18:58.811Z,60.70
2019-01-21T12:22:21.001Z,60.80
2019-01-21T12:25:45.453Z,59.70
2019-01-21T12:29:13.083Z,58.70
2019-01-21T12:33:13.865Z,58.80
2019-01-21T12:37:02.823Z,58.40
2019-01-21T12:40:47.526Z,58.60
2019-01-21T12:44:42.186Z,58.70
2019-01-21T12:48:11.522Z,58.80
2019-01-21T12:51:54.137Z,58.50
2019-01-21T12:55:40.642Z,58.30
2019-01-21T12:58:58.635Z,57.50
2019-01-21T13:02:43.085Z,57.00
2019-01-21T13:06:47.064Z,57.10
2019-01-21T13:10:37.692Z,57.60
2019-01-21T13:14:26.870Z,57.80
2019-01-21T13:18:09.495Z,58.00
2019-01-21T13:21:39.641Z,56.90
2019-01-21T13:25:21.293Z,56.90
2019-01-21T13:28:52.790Z,56.80
2019-01-21T13:32:40.286Z,56.60
2019-01-21T13:36:13.925Z,56.80
2019-01-21T13:39:59.578Z,56.80
2019-01-21T13:43:16.611Z,56.80
2019-01-21T13:46:48.878Z,56.60
2019-01-21T13:50:05.684Z,56.70
2019-01-21T13:53:57.658Z,57.00
2019-01-21T13:57:39.474Z,57.20
2019-01-21T14:01:12.891Z,57.40
2019-01-21T14:04:53.225Z,57.20
2019-01-21T14:08:26.617Z,57.30
2019-01-21T14:11:56.079Z,57.20
2019-01-21T14:15:44.684Z,56.80
2019-01-21T14:19:26.086Z,56.60
2019-01-21T14:23:25.460Z,56.50
2019-01-21T14:26:47.208Z,56.10
2019-01-21T14:30:14.189Z,55.80
2019-01-21T14:34:14.958Z,55.50
2019-01-21T14:37:51.883Z,55.50
2019-01-21T14:41:51.118Z,55.40
2019-01-21T14:45:24.449Z,55.90
2019-01-21T14:49:12.453Z,55.00
2019-01-21T14:52:48.015Z,55.10
2019-01-21T14:56:20.083Z,54.90
2019-01-21T14:59:54.025Z,54.80
2019-01-21T15:03:45.691Z,55.20
2019-01-21T15:07:22.165Z,55.10
2019-01-21T15:11:22.347Z,55.30
2019-01-21T15:15:09.733Z,56.90
2019-01-21T15:18:29.025Z,57.10
2019-01-21T15:22:21.072Z,57.40
2019-01-21T15:26:05.261Z,56.30
2019-01-21T15:29:40.870Z,56.60
2019-01-21T15:33:28.233Z,56.50
2019-01-21T15:37:00.733Z,56.90
2019-01-21T15:40:25.557Z,57.20
2019-01-21T15:44:00.673Z,57.90
2019-01-21T15:47:52.786Z,57.40
2019-01-21T15:51:13.701Z,57.60
2019-01-21T15:54:48.538Z,58.10
2019-01-21T15:58:19.261Z,57.60
2019-01-21T16:01:54.030Z,57.70
2019-01-21T16:05:15.257Z,57.80
2019-01-21T16:09:02.087Z,57.80
2019-01-21T16:12:34.677Z,57.80
2019-01-21T16:16:28.794Z,57.70
2019-01-21T16:19:56.447Z,59.20
2019-01-21T16:23:57.337Z,57.90
2019-01-21T16:27:36.737Z,57.70
2019-01-21T16:30:52.868Z,57.80
2019-01-21T16:34:34.224Z,58.00
2019-01-21T16:38:02.585Z,58.00
2019-01-21T16:41:48.200Z,57.80
2019-01-21T16:44:53.505Z,57.80
2019-01-21T16:47:58.457Z,57.80
2019-01-21T16:51:03.956Z,58.00
2019-01-21T16:54:09.240Z,57.60
2019-01-21T16:57:14.469Z,57.60
2019-01-21T17:00:21.530Z,57.70
2019-01-21T17:03:26.779Z,58.00
2019-01-21T17:06:32.021Z,58.50
2019-01-21T17:09:37.083Z,58.30
2019-01-21T17:12:42.301Z,58.50
2019-01-21T17:15:47.580Z,58.30
2019-01-21T17:18:52.975Z,58.80
2019-01-21T17:21:58.082Z,58.30
2019-01-21T17:25:05.636Z,58.60
2019-01-21T17:28:11.329Z,58.20
2019-01-21T17:31:16.613Z,58.50
2019-01-21T17:34:21.689Z,58.50
2019-01-21T17:37:26.813Z,58.30
2019-01-21T17:40:31.948Z,58.10
2019-01-21T17:43:37.086Z,58.10
2019-01-21T17:46:42.428Z,58.10
2019-01-21T17:49:47.818Z,57.90
2019-01-21T17:52:53.024Z,58.10
2019-01-21T17:55:58.582Z,58.50
2019-01-21T17:59:22.630Z,58.10
2019-01-21T18:02:31.094Z,57.90
2019-01-21T18:05:36.608Z,57.90
2019-01-21T18:08:41.902Z,58.20
2019-01-21T18:11:47.691Z,58.40
2019-01-21T18:14:52.975Z,58.70
2019-01-21T18:17:58.064Z,58.70
2019-01-21T18:21:03.596Z,58.70
2019-01-21T18:24:09.003Z,59.00
2019-01-21T18:27:14.221Z,59.40
2019-01-21T18:30:22.446Z,59.60
2019-01-21T18:33:27.755Z,59.80
2019-01-21T18:36:33.046Z,60.30
2019-01-21T18:39:38.909Z,60.30
2019-01-21T18:42:44.484Z,60.30
2019-01-21T18:45:49.725Z,60.10
2019-01-21T18:48:54.985Z,60.00
2019-01-21T18:52:01.400Z,60.20
2019-01-21T18:55:06.798Z,60.00
2019-01-21T18:58:12.076Z,59.90
2019-01-21T19:01:17.058Z,59.80
2019-01-21T19:04:22.561Z,60.00
2019-01-21T19:07:27.780Z,60.00
2019-01-21T19:10:32.662Z,60.00
2019-01-21T19:13:38.737Z,60.30
2019-01-21T19:16:43.791Z,60.00
2019-01-21T19:19:49.240Z,59.50
2019-01-21T19:22:54.583Z,59.60
2019-01-21T19:25:59.847Z,59.70
2019-01-21T19:29:06.244Z,59.50
2019-01-21T19:32:11.583Z,59.70
2019-01-21T19:35:19.390Z,59.20
2019-01-21T19:38:25.379Z,59.50
2019-01-21T19:41:30.622Z,59.60
2019-01-21T19:44:35.824Z,59.50
2019-01-21T19:47:40.898Z,59.30
2019-01-21T19:50:46.006Z,59.60
2019-01-21T19:53:51.257Z,59.70
2019-01-21T19:56:56.585Z,59.70
2019-01-21T20:00:02.034Z,59.80
2019-01-21T20:03:07.264Z,59.80
2019-01-21T20:06:12.313Z,60.70
2019-01-21T20:09:17.427Z,60.20
2019-01-21T20:12:22.645Z,60.20
2019-01-21T20:15:29.616Z,60.30
2019-01-21T20:18:35.061Z,60.50
2019-01-21T20:21:40.153Z,60.70
2019-01-21T20:24:45.466Z,61.00
2019-01-21T20:27:50.399Z,61.30
2019-01-21T20:30:55.553Z,61.10
2019-01-21T20:34:00.678Z,61.00
2019-01-21T20:37:08.188Z,61.00
2019-01-21T20:40:17.311Z,61.30
2019-01-21T20:43:22.589Z,61.60
2019-01-21T20:46:27.747Z,61.70
2019-01-21T20:49:38.109Z,62.10
2019-01-21T20:52:43.683Z,62.30
2019-01-21T20:55:48.932Z,62.30
2019-01-21T20:58:54.135Z,62.80
2019-01-21T21:01:59.335Z,62.80
2019-01-21T21:05:05.229Z,62.90
2019-01-21T21:08:10.206Z,63.00
2019-01-21T21:11:15.424Z,63.20
2019-01-21T21:14:20.573Z,63.40
2019-01-21T21:17:26.522Z,63.20
2019-01-21T21:20:31.813Z,63.20
2019-01-21T21:23:39.193Z,63.20
2019-01-21T21:26:44.361Z,63.20
2019-01-21T21:29:49.301Z,63.30
2019-01-21T21:32:54.818Z,63.20
2019-01-21T21:36:00.419Z,63.00
2019-01-21T21:39:08.133Z,62.90
2019-01-21T21:42:16.746Z,62.90
2019-01-21T21:45:21.724Z,63.00
2019-01-21T21:48:31.712Z,63.20
2019-01-21T21:51:34.542Z,63.10
2019-01-21T21:54:39.489Z,63.00
2019-01-21T21:57:44.866Z,63.00
2019-01-21T22:00:49.610Z,63.10
2019-01-21T22:03:54.523Z,63.20
2019-01-21T22:07:02.541Z,63.20
2019-01-21T22:10:10.157Z,63.20
2019-01-21T22:13:15.156Z,63.20
2019-01-21T22:16:19.974Z,63.40
2019-01-21T22:19:24.899Z,63.60
2019-01-21T22:22:34.827Z,63.60
2019-01-21T22:25:38.640Z,64.10
2019-01-21T22:28:43.540Z,64.00
2019-01-21T22:31:48.524Z,64.00
2019-01-21T22:34:53.789Z,64.00
2019-01-21T22:37:58.898Z,63.80
2019-01-21T22:41:04.140Z,63.80
2019-01-21T22:44:09.070Z,64.00
2019-01-21T22:47:14.024Z,63.70
2019-01-21T22:50:20.002Z,63.90
2019-01-21T22:53:25.116Z,64.00
2019-01-21T22:56:30.389Z,63.60
2019-01-21T22:59:35.413Z,63.20
2019-01-21T23:02:40.638Z,63.20
2019-01-21T23:05:45.922Z,63.70
2019-01-21T23:08:51.025Z,64.10
2019-01-21T23:11:56.005Z,64.80
2019-01-21T23:15:01.290Z,65.10
2019-01-21T23:18:06.841Z,65.10
2019-01-21T23:21:11.751Z,64.80
2019-01-21T23:24:16.813Z,64.80
2019-01-21T23:27:21.873Z,64.40
2019-01-21T23:30:27.290Z,64.60
2019-01-21T23:33:32.772Z,64.30
2019-01-21T23:36:37.888Z,64.10
2019-01-21T23:39:43.024Z,63.90
2019-01-21T23:42:48.194Z,63.60
2019-01-21T23:45:53.051Z,63.70
2019-01-21T23:48:58.110Z,63.80
2019-01-21T23:52:02.888Z,64.00
2019-01-21T23:55:08.605Z,64.20
2019-01-21T23:58:14.128Z,64.60
